Time;durP1;ratioP1;P1;durP2;ratioP2;P2;SDS_P1;SDS_P2;PMS_P1;PMS_P2;Temp;Humidity;BMP_temperature;BMP_pressure;BME280_temperature;BME280_humidity;BME280_pressure;Samples;Min_cycle;Max_cycle;Signal;HPM_P1;HPM_P2
2022/03/30 00:00:05;;;;;;;27.27;11.50;;;;;;;16.58;38.36;100967.94;5030419;28;20021;-72
2022/03/30 00:02:31;;;;;;;26.60;10.20;;;;;;;18.07;35.81;100967.06;5030715;28;20026;-72
2022/03/30 00:04:56;;;;;;;22.80;10.73;;;;;;;18.85;34.57;100969.22;5029886;28;20363;-71
2022/03/30 00:07:21;;;;;;;21.57;9.40;;;;;;;18.28;35.13;100967.13;5030916;28;20037;-72
2022/03/30 00:09:47;;;;;;;28.40;10.83;;;;;;;17.28;37.25;100963.81;5031665;28;20064;-71
2022/03/30 00:12:12;;;;;;;31.70;10.63;;;;;;;17.22;37.33;100969.34;5029182;28;20053;-71
2022/03/30 00:14:38;;;;;;;24.50;10.30;;;;;;;17.91;36.44;100960.63;5013857;28;20017;-71
2022/03/30 00:17:07;;;;;;;26.57;10.67;;;;;;;18.70;34.48;100958.38;5030111;28;20025;-71
2022/03/30 00:19:32;;;;;;;26.37;10.43;;;;;;;18.65;34.63;100955.91;5013845;28;20037;-71
2022/03/30 00:21:57;;;;;;;24.80;10.63;;;;;;;19.22;34.00;100950.00;5029414;28;20044;-72
2022/03/30 00:24:23;;;;;;;28.53;11.10;;;;;;;16.65;38.07;100953.66;5030685;28;20029;-72
2022/03/30 00:26:49;;;;;;;25.67;11.17;;;;;;;18.09;35.50;100948.50;5030182;28;20033;-71
2022/03/30 00:29:14;;;;;;;27.87;10.50;;;;;;;17.25;36.97;100956.00;5028440;28;20029;-71
2022/03/30 00:31:40;;;;;;;25.70;9.27;;;;;;;17.41;36.64;100962.47;5030618;28;20040;-71
2022/03/30 00:34:05;;;;;;;27.97;10.83;;;;;;;17.03;37.16;100955.91;5029026;28;20539;-71
2022/03/30 00:36:30;;;;;;;33.97;10.43;;;;;;;16.93;37.19;100952.75;5029923;28;20504;-71
2022/03/30 00:38:56;;;;;;;21.77;10.20;;;;;;;17.92;35.79;100949.16;5028616;28;20080;-71
2022/03/30 00:41:21;;;;;;;31.47;11.07;;;;;;;16.67;37.47;100954.44;5029463;28;20481;-72
2022/03/30 00:43:46;;;;;;;27.27;9.60;;;;;;;16.76;37.77;100951.50;5029838;28;20087;-71
2022/03/30 00:46:12;;;;;;;21.37;8.93;;;;;;;17.58;36.01;100960.97;5036998;28;20020;-71
2022/03/30 00:48:38;;;;;;;25.57;10.47;;;;;;;17.17;36.65;100955.44;5037716;28;20021;-72
2022/03/30 00:51:03;;;;;;;22.50;9.57;;;;;;;18.04;35.58;100948.69;5032913;28;20027;-72
2022/03/30 00:53:29;;;;;;;25.27;9.17;;;;;;;17.63;35.94;100948.47;5035671;28;20021;-72
2022/03/30 00:55:54;;;;;;;21.13;9.50;;;;;;;16.47;37.93;100944.53;5029719;28;20488;-71
2022/03/30 00:58:22;;;;;;;27.93;10.77;;;;;;;17.90;35.99;100940.38;5029274;28;20523;-71
2022/03/30 01:00:48;;;;;;;26.40;10.13;;;;;;;17.67;36.02;100944.78;5028049;28;20080;-72
2022/03/30 01:03:13;;;;;;;23.73;9.13;;;;;;;18.19;34.97;100936.63;5029002;28;20024;-71
2022/03/30 01:05:39;;;;;;;28.43;9.47;;;;;;;17.62;36.21;100936.16;5029677;28;20092;-72
2022/03/30 01:08:05;;;;;;;23.83;9.37;;;;;;;17.54;35.87;100932.94;5029295;28;20031;-71
2022/03/30 01:10:31;;;;;;;28.77;9.73;;;;;;;17.07;36.71;100939.91;5029285;28;20451;-72
2022/03/30 01:12:56;;;;;;;24.77;9.00;;;;;;;17.13;36.42;100931.78;5030566;28;20761;-71
2022/03/30 01:15:23;;;;;;;35.13;9.53;;;;;;;16.93;37.28;100932.47;5028185;28;20065;-71
2022/03/30 01:17:49;;;;;;;22.70;9.77;;;;;;;17.10;37.04;100923.09;5028851;28;20079;-71
2022/03/30 01:20:18;;;;;;;29.80;10.50;;;;;;;16.81;37.35;100916.19;5030071;28;20076;-71
2022/03/30 01:22:43;;;;;;;28.93;9.20;;;;;;;17.01;36.83;100915.50;5028346;28;20045;-72
2022/03/30 01:25:09;;;;;;;24.77;9.47;;;;;;;17.31;36.48;100916.19;5028753;28;20507;-71
2022/03/30 01:27:35;;;;;;;25.77;10.63;;;;;;;17.86;35.35;100901.75;5028215;28;20557;-71
2022/03/30 01:33:02;;;;;;;34.23;9.67;;;;;;;17.38;36.33;100911.50;5011124;28;20401;-72
2022/03/30 01:35:27;;;;;;;25.90;9.10;;;;;;;16.84;36.83;100906.34;5041565;28;20114;-71
2022/03/30 01:37:53;;;;;;;28.77;10.97;;;;;;;16.84;36.84;100916.91;5028748;28;20065;-71
2022/03/30 01:40:18;;;;;;;30.93;10.13;;;;;;;17.04;36.73;100910.97;5031224;28;20029;-72
2022/03/30 01:42:44;;;;;;;28.27;9.73;;;;;;;15.77;38.90;100904.53;5027913;28;20022;-72
2022/03/30 01:45:11;;;;;;;27.03;8.80;;;;;;;16.42;37.70;100907.78;5029961;28;20025;-71
2022/03/30 01:47:39;;;;;;;27.97;9.77;;;;;;;16.97;36.41;100904.19;5033025;28;20033;-71
2022/03/30 01:50:05;;;;;;;23.33;9.70;;;;;;;17.80;35.41;100898.47;5033252;28;20049;-71
2022/03/30 01:52:30;;;;;;;23.30;9.20;;;;;;;17.27;36.45;100904.00;5064059;28;20493;-71
2022/03/30 01:54:56;;;;;;;33.77;9.83;;;;;;;16.92;36.64;100906.13;5032542;28;20040;-72
2022/03/30 01:57:21;;;;;;;27.33;9.40;;;;;;;16.19;37.77;100897.13;5033218;28;20136;-72
2022/03/30 01:59:48;;;;;;;33.63;9.93;;;;;;;16.82;36.88;100896.78;5032735;28;20057;-72
2022/03/30 02:02:13;;;;;;;36.40;10.50;;;;;;;15.97;38.30;100897.81;5032310;28;20026;-71
2022/03/30 02:04:40;;;;;;;25.20;9.67;;;;;;;16.69;36.93;100891.94;5031615;28;20052;-72
2022/03/30 02:07:08;;;;;;;31.80;10.23;;;;;;;16.92;36.79;100892.94;5032691;28;20037;-71
2022/03/30 02:09:33;;;;;;;33.17;10.10;;;;;;;15.78;38.09;100887.81;5033708;28;20031;-72
2022/03/30 02:11:59;;;;;;;33.03;9.97;;;;;;;16.53;37.63;100896.00;5033241;28;20029;-72
2022/03/30 02:14:25;;;;;;;25.33;9.97;;;;;;;16.31;38.47;100886.19;5032366;28;20026;-71
2022/03/30 02:16:51;;;;;;;25.90;10.27;;;;;;;16.88;36.43;100888.63;5031621;28;20080;-71
2022/03/30 02:19:16;;;;;;;32.80;11.70;;;;;;;16.47;37.31;100885.66;5032174;28;20018;-71
2022/03/30 02:21:42;;;;;;;30.20;10.53;;;;;;;17.33;35.50;100877.34;5044794;28;20045;-71
2022/03/30 02:24:07;;;;;;;23.80;9.30;;;;;;;16.29;37.95;100882.72;5047650;28;20128;-71
2022/03/30 02:26:33;;;;;;;26.17;10.53;;;;;;;17.30;35.92;100880.13;5032457;28;20033;-71
2022/03/30 02:28:58;;;;;;;29.23;10.53;;;;;;;16.92;36.50;100877.09;5032964;28;20095;-71
2022/03/30 02:31:24;;;;;;;27.37;9.47;;;;;;;16.07;37.24;100872.00;5030711;28;20083;-72
2022/03/30 02:33:50;;;;;;;33.80;10.10;;;;;;;17.13;36.45;100871.03;5032268;28;20532;-71
2022/03/30 02:36:15;;;;;;;27.67;10.37;;;;;;;17.53;35.71;100867.78;5033169;28;20477;-71
2022/03/30 02:38:44;;;;;;;26.60;9.20;;;;;;;16.21;36.91;100868.91;5030913;28;20029;-71
2022/03/30 02:41:11;;;;;;;25.97;9.83;;;;;;;17.16;36.08;100858.63;5031769;28;20017;-72
2022/03/30 02:43:37;;;;;;;26.33;10.10;;;;;;;16.82;36.13;100857.19;5033141;28;20035;-72
2022/03/30 02:46:03;;;;;;;28.27;10.90;;;;;;;16.59;36.41;100853.56;5032952;28;20025;-71
2022/03/30 02:48:29;;;;;;;31.13;11.63;;;;;;;16.33;37.05;100857.97;5031973;28;20103;-72
2022/03/30 02:50:57;;;;;;;30.07;10.23;;;;;;;16.59;36.27;100848.28;5033032;28;20474;-71
2022/03/30 02:53:23;;;;;;;29.80;9.60;;;;;;;15.51;38.72;100850.00;5030750;28;20029;-71
2022/03/30 02:55:49;;;;;;;34.50;9.60;;;;;;;16.36;36.68;100841.16;5031555;28;20021;-72
2022/03/30 02:58:14;;;;;;;24.73;10.63;;;;;;;16.28;36.64;100837.03;5032247;28;20588;-71
2022/03/30 03:00:41;;;;;;;25.73;8.97;;;;;;;15.77;37.68;100836.00;5032483;28;20096;-71
2022/03/30 03:03:10;;;;;;;27.13;8.83;;;;;;;16.10;37.31;100835.88;5030866;28;20033;-71
2022/03/30 03:05:36;;;;;;;26.17;9.37;;;;;;;15.90;37.68;100831.22;5015690;28;20040;-71
2022/03/30 03:08:04;;;;;;;27.50;9.93;;;;;;;16.90;35.99;100836.69;5032024;28;20025;-71
2022/03/30 03:10:31;;;;;;;32.17;9.47;;;;;;;16.55;35.97;100836.13;5031205;28;20036;-71
2022/03/30 03:12:56;;;;;;;32.77;10.00;;;;;;;15.67;37.85;100831.06;5030863;28;20032;-71
2022/03/30 03:15:22;;;;;;;32.70;10.63;;;;;;;16.10;37.01;100835.88;5031044;28;20029;-71
2022/03/30 03:17:48;;;;;;;29.63;8.83;;;;;;;16.57;36.03;100824.59;5031310;28;20021;-71
2022/03/30 03:20:14;;;;;;;26.47;9.93;;;;;;;16.43;36.10;100819.81;5031480;28;20033;-71
2022/03/30 03:22:40;;;;;;;24.60;9.10;;;;;;;16.74;35.86;100824.00;5032128;28;20116;-71
2022/03/30 03:25:07;;;;;;;27.40;9.27;;;;;;;16.06;37.12;100822.81;5030657;28;20036;-71
2022/03/30 03:27:32;;;;;;;30.40;10.60;;;;;;;16.59;35.83;100821.91;5030509;28;20028;-71
2022/03/30 03:29:59;;;;;;;28.27;9.37;;;;;;;17.13;35.01;100818.22;5032785;28;20022;-71
2022/03/30 03:32:24;;;;;;;31.47;11.13;;;;;;;17.18;34.96;100819.81;5032598;28;20391;-71
2022/03/30 03:34:49;;;;;;;29.40;9.93;;;;;;;16.82;35.71;100828.16;5032126;28;20025;-71
2022/03/30 03:37:17;;;;;;;33.30;10.43;;;;;;;16.19;36.57;100821.50;5031513;28;20108;-71
2022/03/30 03:39:43;;;;;;;37.00;10.67;;;;;;;15.82;37.51;100827.13;5030848;28;20040;-71
2022/03/30 03:42:09;;;;;;;22.70;9.23;;;;;;;16.77;35.99;100831.81;5030477;28;20025;-71
2022/03/30 03:44:34;;;;;;;25.33;9.27;;;;;;;16.99;35.44;100831.06;5030894;28;20105;-71
2022/03/30 03:47:00;;;;;;;31.53;9.53;;;;;;;17.01;35.58;100821.31;5030606;28;20040;-71
2022/03/30 03:49:26;;;;;;;31.53;10.33;;;;;;;16.59;35.80;100827.19;5031321;28;20477;-71
2022/03/30 03:51:51;;;;;;;30.27;9.60;;;;;;;16.38;36.35;100827.00;5033664;28;20040;-72
2022/03/30 03:54:17;;;;;;;28.67;10.57;;;;;;;16.56;36.10;100822.88;5029609;28;20060;-71
2022/03/30 03:56:43;;;;;;;28.50;10.47;;;;;;;17.06;35.23;100822.00;5029958;28;20017;-71
2022/03/30 03:59:09;;;;;;;24.80;9.10;;;;;;;17.20;35.00;100817.97;5030175;28;20025;-71
2022/03/30 04:01:35;;;;;;;33.13;11.20;;;;;;;16.28;36.29;100825.63;5030810;28;20033;-71
2022/03/30 04:04:00;;;;;;;29.67;10.63;;;;;;;16.26;36.26;100820.38;5030393;28;20082;-71
2022/03/30 04:06:26;;;;;;;32.73;9.33;;;;;;;16.82;35.97;100817.59;5046151;28;20040;-71
2022/03/30 04:08:55;;;;;;;27.10;10.00;;;;;;;16.82;35.42;100814.97;5033340;28;20036;-71
2022/03/30 04:11:20;;;;;;;25.90;10.40;;;;;;;16.82;35.60;100801.75;5029533;28;20022;-71
2022/03/30 04:13:45;;;;;;;36.50;10.40;;;;;;;16.15;37.11;100811.13;5029713;28;20079;-71
2022/03/30 04:16:11;;;;;;;25.63;9.57;;;;;;;16.66;36.72;100802.28;5030134;28;20021;-71
2022/03/30 04:18:36;;;;;;;23.90;9.50;;;;;;;16.64;36.70;100804.16;5029483;28;20049;-71
2022/03/30 04:21:02;;;;;;;29.90;9.90;;;;;;;16.60;36.19;100807.81;5042701;28;20501;-71
2022/03/30 04:23:27;;;;;;;26.53;11.40;;;;;;;16.92;35.78;100804.00;5028826;28;20029;-71
2022/03/30 04:25:52;;;;;;;38.87;12.03;;;;;;;16.74;36.05;100792.31;5029999;28;20027;-71
2022/03/30 04:28:18;;;;;;;32.23;11.50;;;;;;;16.50;36.64;100794.09;5029996;28;20108;-71
2022/03/30 04:30:44;;;;;;;31.40;10.57;;;;;;;16.29;37.48;100787.75;5039430;28;20550;-71
2022/03/30 04:33:09;;;;;;;27.60;10.30;;;;;;;16.93;35.75;100789.91;5032314;28;20100;-70
2022/03/30 04:35:36;;;;;;;34.40;11.97;;;;;;;16.82;35.90;100785.94;5029880;28;20112;-71
2022/03/30 04:38:02;;;;;;;42.03;13.97;;;;;;;16.93;35.76;100789.06;5026678;28;20037;-71
2022/03/30 04:40:28;;;;;;;26.97;10.27;;;;;;;16.51;36.00;100792.28;5031147;28;20037;-71
2022/03/30 04:42:54;;;;;;;46.53;12.37;;;;;;;16.44;36.14;100794.28;5029984;28;20036;-71
2022/03/30 04:45:20;;;;;;;31.90;10.37;;;;;;;15.89;37.06;100797.03;5036625;28;20017;-72
2022/03/30 04:47:46;;;;;;;27.00;10.30;;;;;;;15.72;38.23;100787.00;5031999;28;20381;-71
2022/03/30 04:50:12;;;;;;;33.17;10.60;;;;;;;15.51;38.46;100783.25;5029436;28;20017;-72
2022/03/30 04:52:39;;;;;;;23.67;9.37;;;;;;;16.03;36.98;100786.00;5028473;28;20047;-71
2022/03/30 04:55:06;;;;;;;27.73;11.10;;;;;;;16.15;36.91;100790.88;5030121;28;20021;-71
2022/03/30 04:57:31;;;;;;;33.60;11.47;;;;;;;16.16;36.85;100797.03;5030259;28;20029;-71
2022/03/30 04:59:56;;;;;;;31.77;11.20;;;;;;;16.02;36.59;100785.16;5032238;28;20057;-70
2022/03/30 05:02:22;;;;;;;34.30;9.97;;;;;;;16.00;37.54;100786.97;5029350;28;20064;-71
2022/03/30 05:04:48;;;;;;;35.03;10.83;;;;;;;15.76;37.20;100784.22;5032439;28;20021;-71
2022/03/30 05:07:14;;;;;;;29.03;11.20;;;;;;;16.00;37.50;100781.72;5031568;28;20056;-71
2022/03/30 05:09:40;;;;;;;36.60;11.17;;;;;;;15.94;36.76;100784.56;5029604;28;20025;-71
2022/03/30 05:12:05;;;;;;;30.37;12.00;;;;;;;15.85;37.07;100784.84;5029605;28;20441;-71
2022/03/30 05:14:32;;;;;;;27.47;10.97;;;;;;;15.67;37.16;100786.28;5027800;28;20057;-71
2022/03/30 05:16:59;;;;;;;31.43;10.80;;;;;;;15.93;37.46;100785.47;5028992;28;20032;-71
2022/03/30 05:19:24;;;;;;;34.47;11.03;;;;;;;15.59;37.78;100786.50;5030593;28;20053;-71
2022/03/30 05:21:50;;;;;;;29.67;10.97;;;;;;;15.76;37.46;100778.94;5029128;28;20041;-71
2022/03/30 05:24:15;;;;;;;34.37;11.17;;;;;;;15.33;37.96;100782.94;5030368;28;20022;-72
2022/03/30 05:26:40;;;;;;;25.13;9.67;;;;;;;15.99;37.37;100774.72;5015648;28;20029;-71
2022/03/30 05:29:06;;;;;;;29.70;10.47;;;;;;;16.36;36.34;100783.13;5036674;28;20115;-72
2022/03/30 05:31:31;;;;;;;35.13;11.23;;;;;;;16.10;36.62;100777.84;5037022;28;20094;-71
2022/03/30 05:33:57;;;;;;;27.80;10.43;;;;;;;16.26;36.21;100772.91;5027874;28;20036;-72
2022/03/30 05:36:22;;;;;;;26.87;10.97;;;;;;;16.15;37.01;100774.22;5029381;28;20028;-72
2022/03/30 05:38:48;;;;;;;46.40;13.57;;;;;;;15.60;37.26;100778.56;5029254;28;20028;-72
2022/03/30 05:41:14;;;;;;;31.47;12.10;;;;;;;15.80;36.90;100778.88;5028090;28;20024;-72
2022/03/30 05:43:39;;;;;;;33.63;10.77;;;;;;;15.89;37.02;100768.03;5029288;28;20115;-71
2022/03/30 05:46:05;;;;;;;25.37;10.43;;;;;;;16.22;36.14;100770.44;5028680;28;20025;-71
2022/03/30 05:48:30;;;;;;;34.63;10.97;;;;;;;16.13;36.97;100770.75;5029763;28;20409;-71
2022/03/30 05:50:56;;;;;;;33.13;10.80;;;;;;;16.20;36.57;100767.00;5030308;28;20029;-71
2022/03/30 05:53:22;;;;;;;32.10;11.10;;;;;;;16.19;36.69;100775.81;5029196;28;20128;-71
2022/03/30 05:55:47;;;;;;;29.43;10.27;;;;;;;16.30;36.48;100776.31;5029444;28;20392;-72
2022/03/30 05:58:14;;;;;;;30.73;10.63;;;;;;;16.58;35.74;100770.94;5030222;28;20540;-71
2022/03/30 06:00:41;;;;;;;28.70;10.40;;;;;;;16.78;35.59;100767.53;5028595;28;20057;-71
2022/03/30 06:03:07;;;;;;;30.50;10.80;;;;;;;16.46;35.93;100768.72;5029781;28;20021;-71
2022/03/30 06:05:32;;;;;;;29.30;10.73;;;;;;;16.52;36.29;100767.66;5029842;28;20033;-71
2022/03/30 06:07:59;;;;;;;31.50;9.93;;;;;;;16.59;36.02;100763.88;5030175;28;20029;-72
2022/03/30 06:10:28;;;;;;;27.73;9.73;;;;;;;16.22;36.41;100770.44;5028205;28;20372;-71
2022/03/30 06:12:55;;;;;;;28.53;9.03;;;;;;;16.18;36.68;100767.03;5030248;28;20482;-71
2022/03/30 06:15:20;;;;;;;24.37;10.23;;;;;;;16.17;36.72;100782.91;5029256;28;20033;-71
2022/03/30 06:17:48;;;;;;;28.17;9.70;;;;;;;16.24;37.14;100776.53;5028689;28;20514;-72
2022/03/30 06:20:13;;;;;;;30.50;9.80;;;;;;;16.85;36.26;100764.69;5028190;28;20018;-72
2022/03/30 06:22:41;;;;;;;34.90;10.57;;;;;;;16.75;36.44;100770.31;5028974;28;20038;-72
2022/03/30 06:25:09;;;;;;;30.30;9.53;;;;;;;16.53;36.72;100777.28;5027662;28;20575;-71
2022/03/30 06:27:36;;;;;;;43.47;10.40;;;;;;;16.71;36.71;100784.53;5028568;28;20025;-72
2022/03/30 06:30:06;;;;;;;30.77;10.87;;;;;;;16.97;36.40;100774.81;5029294;28;20032;-72
2022/03/30 06:32:32;;;;;;;23.57;10.57;;;;;;;16.44;37.80;100781.97;5029479;28;20084;-72
2022/03/30 06:34:58;;;;;;;32.53;10.67;;;;;;;17.04;36.26;100781.59;5024427;28;20030;-71
2022/03/30 06:37:24;;;;;;;26.27;10.33;;;;;;;16.71;36.51;100783.69;5031416;28;20028;-71
2022/03/30 06:39:49;;;;;;;30.73;9.50;;;;;;;16.55;37.00;100783.34;5033090;28;20033;-71
2022/03/30 06:42:18;;;;;;;32.40;9.63;;;;;;;17.52;35.94;100776.25;5031527;28;20021;-72
2022/03/30 06:44:44;;;;;;;30.97;10.73;;;;;;;17.45;35.47;100775.63;5020335;28;20487;-71
2022/03/30 06:47:09;;;;;;;42.97;10.97;;;;;;;17.22;35.86;100779.16;5031972;28;20116;-71
2022/03/30 06:49:38;;;;;;;35.67;10.20;;;;;;;17.61;35.55;100781.16;5031725;28;20021;-71
2022/03/30 06:52:05;;;;;;;26.57;10.47;;;;;;;17.91;35.00;100783.47;5028581;28;20551;-72
2022/03/30 06:54:30;;;;;;;29.27;10.67;;;;;;;18.27;34.36;100774.94;5033475;28;20041;-72
2022/03/30 06:56:59;;;;;;;30.33;9.60;;;;;;;17.93;35.09;100771.09;5031730;28;20017;-71
2022/03/30 06:59:24;;;;;;;30.23;12.00;;;;;;;17.72;35.83;100773.66;5031388;28;20049;-72
2022/03/30 07:01:51;;;;;;;33.40;10.70;;;;;;;18.56;35.24;100767.50;5031190;28;20199;-71
2022/03/30 07:04:16;;;;;;;33.73;11.10;;;;;;;18.78;34.20;100760.31;5031318;28;20041;-72
2022/03/30 07:10:15;;;;;;;29.10;10.87;;;;;;;18.99;33.32;100758.50;5031338;28;20036;-71
2022/03/30 07:12:11;;;;;;;27.00;10.27;;;;;;;18.79;34.36;100751.47;5031780;28;20048;-71
2022/03/30 07:14:36;;;;;;;28.53;9.97;;;;;;;18.81;34.43;100754.88;5030097;28;20029;-71
2022/03/30 07:17:01;;;;;;;30.23;11.23;;;;;;;18.55;34.40;100753.41;5031126;28;20048;-71
2022/03/30 07:19:27;;;;;;;23.00;10.23;;;;;;;18.76;34.14;100746.28;5030762;28;20144;-71
2022/03/30 07:21:53;;;;;;;21.77;9.10;;;;;;;19.42;33.32;100745.00;5030870;28;20106;-71
2022/03/30 07:24:19;;;;;;;28.77;10.43;;;;;;;18.78;34.28;100749.75;5032131;28;20072;-71
2022/03/30 07:26:45;;;;;;;33.43;9.80;;;;;;;19.19;33.54;100745.25;5031108;28;20069;-71
2022/03/30 07:29:10;;;;;;;24.17;9.83;;;;;;;19.39;32.98;100745.16;5030088;28;20120;-71
2022/03/30 07:31:35;;;;;;;27.90;9.23;;;;;;;18.93;33.86;100748.22;5031448;28;20036;-71
2022/03/30 07:34:01;;;;;;;27.40;9.57;;;;;;;19.19;33.48;100742.59;5030026;28;20041;-71
2022/03/30 07:36:26;;;;;;;24.20;9.07;;;;;;;18.71;33.88;100755.38;5011086;28;20084;-71
2022/03/30 07:38:52;;;;;;;23.47;8.77;;;;;;;18.85;34.29;100754.72;5044847;28;20057;-70
2022/03/30 07:41:17;;;;;;;23.33;8.97;;;;;;;18.81;33.35;100749.59;5024526;28;20030;-71
2022/03/30 07:43:43;;;;;;;27.17;8.97;;;;;;;20.71;30.58;100742.06;5030944;28;20553;-71
2022/03/30 07:46:11;;;;;;;23.40;8.40;;;;;;;21.64;29.72;100747.59;5029927;28;20036;-71
2022/03/30 07:48:36;;;;;;;24.20;8.00;;;;;;;21.50;29.18;100741.22;5030468;28;20063;-71
2022/03/30 07:51:02;;;;;;;20.73;8.17;;;;;;;22.55;28.66;100749.34;5013134;28;20485;-71
2022/03/30 07:53:28;;;;;;;17.97;8.20;;;;;;;21.51;29.48;100742.09;5030272;28;20465;-71
2022/03/30 07:55:53;;;;;;;26.23;8.15;;;;;;;21.70;28.73;100747.22;5030066;28;20430;-71
2022/03/30 07:58:20;;;;;;;21.58;8.00;;;;;;;22.41;28.32;100743.06;5031628;28;20025;-71
2022/03/30 08:00:45;;;;;;;25.75;6.85;;;;;;;22.81;27.66;100740.56;5030995;28;20044;-71
2022/03/30 08:03:11;;;;;;;19.15;7.45;;;;;;;22.23;28.98;100744.13;5028900;28;20025;-71
2022/03/30 08:05:36;;;;;;;19.67;7.72;;;;;;;24.11;26.30;100741.97;5030555;28;20499;-71
2022/03/30 08:08:02;;;;;;;17.55;6.70;;;;;;;20.58;30.37;100738.31;5031531;28;20432;-71
2022/03/30 08:10:30;;;;;;;16.05;7.72;;;;;;;22.49;28.16;100740.78;5031142;28;20025;-71
2022/03/30 08:12:57;;;;;;;16.67;7.78;;;;;;;24.65;25.58;100732.94;5029995;28;20469;-71
2022/03/30 08:15:22;;;;;;;18.65;8.10;;;;;;;22.70;27.53;100737.72;5029020;28;20044;-71
2022/03/30 08:17:50;;;;;;;16.35;7.28;;;;;;;22.72;28.24;100745.63;5030073;28;20021;-71
2022/03/30 08:22:25;;;;;;;17.40;7.22;;;;;;;23.57;27.22;100737.56;5031499;28;20405;-71
2022/03/30 08:23:01;;;;;;;20.30;7.60;;;;;;;23.94;27.23;100735.97;5030383;28;20501;-71
2022/03/30 08:25:27;;;;;;;18.25;7.95;;;;;;;23.83;26.88;100738.50;5030246;28;20044;-71
2022/03/30 08:27:52;;;;;;;19.20;7.50;;;;;;;23.12;27.67;100736.00;5030128;28;20444;-71
2022/03/30 08:30:17;;;;;;;17.88;7.53;;;;;;;24.06;26.15;100739.63;5028667;28;20060;-71
2022/03/30 08:32:43;;;;;;;17.40;7.43;;;;;;;24.10;26.63;100743.81;5030800;28;20025;-71
2022/03/30 08:35:10;;;;;;;16.25;7.72;;;;;;;21.90;29.77;100740.75;5029903;28;20060;-71
2022/03/30 08:37:36;;;;;;;21.00;8.80;;;;;;;22.56;28.48;100735.06;5030984;28;20017;-71
2022/03/30 08:40:02;;;;;;;17.63;7.57;;;;;;;23.04;27.85;100743.59;5029798;28;20032;-71
2022/03/30 08:42:27;;;;;;;20.90;8.20;;;;;;;23.63;27.48;100738.03;5029402;28;20386;-70
2022/03/30 08:44:53;;;;;;;17.35;7.22;;;;;;;23.92;26.18;100731.69;5031041;28;20014;-71
2022/03/30 08:47:18;;;;;;;13.73;7.10;;;;;;;24.03;26.67;100729.16;5029834;28;20018;-71
2022/03/30 08:49:47;;;;;;;17.42;7.28;;;;;;;22.50;28.45;100736.31;5030212;28;20380;-71
2022/03/30 08:52:13;;;;;;;16.08;7.47;;;;;;;22.92;27.64;100733.72;5029905;28;20022;-71
2022/03/30 08:54:43;;;;;;;18.27;8.27;;;;;;;23.91;26.55;100732.69;5030831;28;20079;-71
2022/03/30 08:57:08;;;;;;;15.60;7.03;;;;;;;23.97;26.13;100722.41;5029033;28;20021;-71
2022/03/30 08:59:34;;;;;;;13.98;5.93;;;;;;;23.16;26.93;100721.53;5029034;28;20034;-71
2022/03/30 09:01:59;;;;;;;12.75;6.55;;;;;;;22.51;28.26;100720.22;5028829;28;20045;-71
2022/03/30 09:04:25;;;;;;;15.02;6.93;;;;;;;24.29;26.15;100721.16;5013045;28;20451;-72
2022/03/30 09:06:56;;;;;;;14.25;6.30;;;;;;;24.58;24.93;100715.59;5028434;28;20025;-73
2022/03/30 09:09:34;;;;;;;12.18;5.80;;;;;;;24.20;24.84;100720.84;5030778;28;20112;-72
2022/03/30 09:12:01;;;;;;;11.82;6.07;;;;;;;24.62;24.53;100714.44;5028344;28;20836;-72
2022/03/30 09:14:31;;;;;;;12.35;6.22;;;;;;;25.36;23.61;100709.09;5030251;28;20045;-72
2022/03/30 09:17:08;;;;;;;11.60;5.97;;;;;;;24.14;24.88;100726.63;5030367;28;20083;-72
2022/03/30 09:19:36;;;;;;;9.73;5.22;;;;;;;22.71;26.34;100715.47;5027293;28;20036;-72
2022/03/30 09:22:07;;;;;;;11.05;5.75;;;;;;;22.41;26.88;100712.91;5030567;28;20103;-72
2022/03/30 09:24:37;;;;;;;13.73;6.90;;;;;;;23.09;26.86;100712.16;5012987;28;20033;-72
2022/03/30 09:27:05;;;;;;;12.80;6.65;;;;;;;22.91;26.38;100713.34;5028474;28;20025;-72
2022/03/30 09:29:33;;;;;;;13.60;6.10;;;;;;;21.92;27.93;100719.38;5029485;28;20038;-72
2022/03/30 09:32:03;;;;;;;16.80;6.47;;;;;;;22.37;27.18;100709.59;5028427;28;20072;-72
2022/03/30 09:34:35;;;;;;;11.25;6.28;;;;;;;24.84;24.30;100708.41;5029685;28;20370;-72
2022/03/30 09:37:02;;;;;;;12.02;6.68;;;;;;;23.24;25.88;100715.66;5029414;28;20033;-72
2022/03/30 09:39:36;;;;;;;17.10;7.65;;;;;;;22.97;26.70;100708.50;5028793;28;20100;-72
2022/03/30 09:42:03;;;;;;;10.70;5.93;;;;;;;23.17;26.19;100704.53;5028399;28;20040;-72
2022/03/30 09:44:30;;;;;;;12.73;5.57;;;;;;;23.19;25.70;100708.00;5029160;28;20035;-72
2022/03/30 09:47:07;;;;;;;10.70;5.53;;;;;;;24.20;24.64;100704.81;5027311;28;20033;-71
2022/03/30 09:49:37;;;;;;;9.02;4.68;;;;;;;25.01;23.66;100705.38;5029422;28;20033;-72
2022/03/30 09:52:09;;;;;;;10.52;4.85;;;;;;;23.41;25.22;100700.38;5028732;28;20103;-72
2022/03/30 09:54:53;;;;;;;13.15;5.65;;;;;;;23.55;25.80;100692.31;5028827;28;20128;-72
2022/03/30 09:57:18;;;;;;;13.93;6.75;;;;;;;24.30;24.79;100693.50;5028557;28;20025;-71
2022/03/30 10:00:05;;;;;;;15.50;5.93;;;;;;;23.88;25.32;100696.38;5030318;28;20100;-72
2022/03/30 10:02:37;;;;;;;14.80;6.00;;;;;;;24.10;25.08;100682.41;5022562;28;20033;-72
2022/03/30 10:05:04;;;;;;;12.30;6.18;;;;;;;22.52;26.72;100687.31;5021080;28;20114;-72
2022/03/30 10:07:29;;;;;;;9.77;5.80;;;;;;;22.51;27.07;100692.75;5032883;28;20104;-72
2022/03/30 10:09:57;;;;;;;12.65;5.82;;;;;;;23.43;25.09;100694.00;5032152;28;20033;-72
2022/03/30 10:12:24;;;;;;;15.18;5.82;;;;;;;23.12;25.78;100685.34;5031136;28;20041;-72
2022/03/30 10:14:49;;;;;;;12.80;6.13;;;;;;;23.30;25.10;100682.41;5033583;28;20091;-72
2022/03/30 10:17:15;;;;;;;15.68;7.00;;;;;;;24.35;24.45;100681.53;5031408;28;20030;-72
2022/03/30 10:19:46;;;;;;;14.13;6.10;;;;;;;23.72;25.18;100683.19;5032546;28;20457;-72
2022/03/30 10:22:39;;;;;;;15.70;6.85;;;;;;;24.09;25.17;100685.19;5030964;28;20452;-72
2022/03/30 10:25:04;;;;;;;12.70;5.75;;;;;;;23.35;25.54;100680.31;5031412;28;20030;-71
2022/03/30 10:27:51;;;;;;;12.90;6.10;;;;;;;22.24;26.97;100687.28;5032321;28;20124;-72
2022/03/30 10:30:23;;;;;;;12.38;5.50;;;;;;;24.09;24.58;100680.69;5031584;28;20026;-73
2022/03/30 10:32:55;;;;;;;14.32;5.97;;;;;;;23.83;24.82;100680.63;5012714;28;20042;-72
2022/03/30 10:35:35;;;;;;;11.48;5.93;;;;;;;23.16;25.58;100676.22;5014675;28;20606;-72
2022/03/30 10:38:01;;;;;;;9.82;5.72;;;;;;;22.86;25.99;100673.66;5013336;28;20517;-72
2022/03/30 10:40:27;;;;;;;13.88;6.65;;;;;;;22.07;26.72;100675.88;5028438;28;20033;-72
2022/03/30 10:42:53;;;;;;;10.13;5.43;;;;;;;20.95;27.83;100669.94;5031297;28;20028;-71
2022/03/30 10:45:37;;;;;;;16.17;5.63;;;;;;;20.71;27.86;100675.69;5030800;28;20029;-72
2022/03/30 10:48:28;;;;;;;14.43;5.55;;;;;;;23.78;25.29;100672.09;5030396;28;20068;-72
2022/03/30 10:50:58;;;;;;;17.30;6.10;;;;;;;24.21;23.85;100662.97;5029374;28;20127;-72
2022/03/30 10:53:30;;;;;;;15.10;5.75;;;;;;;24.37;23.99;100665.38;5031228;28;20133;-72
2022/03/30 10:56:15;;;;;;;14.18;5.53;;;;;;;25.29;22.47;100667.72;5032929;28;20026;-72
2022/03/30 10:58:53;;;;;;;10.90;5.32;;;;;;;24.88;23.14;100670.66;5030939;28;20041;-72
2022/03/30 11:01:28;;;;;;;10.27;5.85;;;;;;;26.44;21.58;100652.66;5020827;28;20436;-72
2022/03/30 11:04:16;;;;;;;10.07;5.47;;;;;;;25.93;21.68;100658.47;5031276;28;20033;-72
2022/03/30 11:06:55;;;;;;;13.52;5.95;;;;;;;25.68;22.25;100655.00;5030438;28;20420;-72
2022/03/30 11:09:23;;;;;;;13.32;5.82;;;;;;;24.82;22.89;100648.88;5028283;28;20025;-72
2022/03/30 11:12:00;;;;;;;9.68;5.10;;;;;;;23.27;23.83;100646.16;5030875;28;20032;-72
2022/03/30 11:14:39;;;;;;;9.05;4.43;;;;;;;23.33;24.81;100636.91;5030335;28;20477;-72
2022/03/30 11:17:13;;;;;;;9.98;5.07;;;;;;;23.18;25.29;100631.63;5029057;28;20369;-72
2022/03/30 11:19:47;;;;;;;8.40;4.93;;;;;;;22.88;24.73;100635.31;5030554;28;20037;-72